Time;durP1;ratioP1;P1;durP2;ratioP2;P2;SDS_P1;SDS_P2;PMS_P1;PMS_P2;Temp;Humidity;BMP_temperature;BMP_pressure;BME280_temperature;BME280_humidity;BME280_pressure;Samples;Min_cycle;Max_cycle;Signal;HPM_P1;HPM_P2
2023/09/11 00:00:27;;;;;;;0.95;0.93;;;18.70;99.90;;;;;;5122602;28;20036;-74
2023/09/11 00:02:53;;;;;;;2.90;2.22;;;18.60;99.90;;;;;;5125546;27;20035;-74
2023/09/11 00:05:18;;;;;;;8.30;2.08;;;18.60;99.90;;;;;;5128449;27;20377;-74
2023/09/11 00:07:44;;;;;;;2.42;2.08;;;18.50;99.90;;;;;;5127243;27;20043;-74
2023/09/11 00:10:09;;;;;;;4.75;2.05;;;18.50;99.90;;;;;;5126502;27;20039;-73
2023/09/11 00:12:35;;;;;;;0.88;0.88;;;18.50;99.90;;;;;;5126364;27;20048;-74
2023/09/11 00:15:01;;;;;;;2.30;1.77;;;18.40;99.90;;;;;;5115619;27;20039;-74
2023/09/11 00:17:26;;;;;;;0.47;0.47;;;18.40;99.90;;;;;;5129476;27;20388;-75
2023/09/11 00:19:53;;;;;;;1.38;0.60;;;18.40;99.90;;;;;;5127365;27;20096;-72
2023/09/11 00:22:18;;;;;;;17.02;2.05;;;18.40;99.90;;;;;;5126154;27;20079;-72
2023/09/11 00:24:44;;;;;;;3.22;2.72;;;18.40;99.90;;;;;;5126231;27;20067;-72
2023/09/11 00:27:10;;;;;;;1.13;1.02;;;18.50;99.90;;;;;;5117069;27;20044;-73
2023/09/11 00:29:35;;;;;;;0.98;0.85;;;18.50;99.90;;;;;;5132075;27;20045;-73
2023/09/11 00:32:01;;;;;;;3.05;2.05;;;18.50;99.90;;;;;;5128977;27;20489;-73
2023/09/11 00:34:29;;;;;;;1.10;0.93;;;18.40;99.90;;;;;;5124468;27;20035;-73
2023/09/11 00:36:55;;;;;;;3.83;1.15;;;18.40;99.90;;;;;;5126068;27;20050;-73
2023/09/11 00:39:21;;;;;;;5.07;2.25;;;18.30;99.90;;;;;;5125065;27;20035;-73
2023/09/11 00:41:46;;;;;;;0.73;0.73;;;18.40;99.90;;;;;;5125624;27;20481;-73
2023/09/11 00:44:12;;;;;;;1.25;1.13;;;18.30;99.90;;;;;;5126767;27;20043;-73
2023/09/11 00:46:38;;;;;;;2.20;1.70;;;18.30;99.90;;;;;;5128847;27;20408;-73
2023/09/11 00:49:06;;;;;;;0.52;0.52;;;18.20;99.90;;;;;;5129135;27;20047;-75
2023/09/11 00:51:32;;;;;;;2.20;1.88;;;18.40;99.90;;;;;;5128416;27;20054;-73
2023/09/11 00:53:58;;;;;;;1.42;0.98;;;18.40;99.90;;;;;;5128835;27;20092;-73
2023/09/11 00:56:24;;;;;;;1.52;1.08;;;18.40;99.90;;;;;;5127292;27;20436;-73
2023/09/11 00:58:50;;;;;;;2.45;1.95;;;18.40;99.90;;;;;;5124665;27;20111;-73
2023/09/11 01:01:17;;;;;;;2.08;1.52;;;18.40;99.90;;;;;;5125605;27;20035;-73
2023/09/11 01:03:44;;;;;;;1.52;0.68;;;18.50;99.90;;;;;;5128268;27;20450;-73
2023/09/11 01:06:10;;;;;;;3.25;1.88;;;18.60;99.90;;;;;;5128657;27;20035;-73
2023/09/11 01:08:36;;;;;;;1.55;1.45;;;18.60;99.90;;;;;;5126961;27;20035;-73
2023/09/11 01:11:01;;;;;;;1.42;1.10;;;18.50;99.90;;;;;;5115455;27;20442;-74
2023/09/11 01:13:27;;;;;;;1.65;1.10;;;18.50;99.90;;;;;;5129138;27;20050;-74
2023/09/11 01:16:06;;;;;;;5.85;2.53;;;18.50;99.90;;;;;;5125909;27;20038;-74
2023/09/11 01:18:53;;;;;;;1.10;1.00;;;18.50;99.90;;;;;;5128474;27;20074;-74
2023/09/11 01:21:33;;;;;;;2.72;1.23;;;18.40;99.90;;;;;;5118718;27;20051;-74
2023/09/11 01:24:26;;;;;;;1.33;1.08;;;18.40;99.90;;;;;;5126929;27;20045;-74
2023/09/11 01:27:21;;;;;;;1.52;1.17;;;18.30;99.90;;;;;;5126743;27;20046;-74
2023/09/11 01:29:50;;;;;;;2.15;1.95;;;18.30;99.90;;;;;;5126203;27;20039;-73
2023/09/11 01:32:19;;;;;;;1.85;1.52;;;18.20;99.90;;;;;;5116231;27;20081;-74
2023/09/11 01:34:44;;;;;;;1.77;1.30;;;18.20;99.90;;;;;;5128048;27;20112;-74
2023/09/11 01:37:10;;;;;;;0.85;0.65;;;18.10;99.90;;;;;;5125809;27;20454;-74
2023/09/11 01:39:36;;;;;;;0.50;0.50;;;18.00;99.90;;;;;;5121021;27;20117;-74
2023/09/11 01:42:07;;;;;;;1.98;1.40;;;18.20;99.90;;;;;;5121473;27;20028;-74
2023/09/11 01:44:44;;;;;;;1.98;1.20;;;17.90;99.90;;;;;;5127733;27;20110;-73
2023/09/11 01:47:14;;;;;;;0.30;0.30;;;17.80;99.90;;;;;;5127401;27;20120;-74
2023/09/11 01:49:42;;;;;;;0.60;0.60;;;17.80;99.90;;;;;;5121183;27;20043;-74
2023/09/11 01:52:10;;;;;;;0.77;0.65;;;17.70;99.90;;;;;;5124389;27;20051;-73
2023/09/11 01:54:36;;;;;;;0.75;0.65;;;17.70;99.90;;;;;;5127781;27;20050;-73
2023/09/11 01:57:02;;;;;;;3.67;0.22;;;17.60;99.90;;;;;;5127544;27;20035;-73
2023/09/11 01:59:28;;;;;;;0.32;0.30;;;17.50;99.90;;;;;;5125004;27;20039;-74
2023/09/11 02:01:53;;;;;;;0.45;0.40;;;17.40;99.90;;;;;;5112381;27;20035;-73
2023/09/11 02:04:19;;;;;;;0.57;0.32;;;17.40;99.90;;;;;;5127429;27;20042;-73
2023/09/11 02:06:45;;;;;;;0.45;0.40;;;17.30;99.90;;;;;;5124248;27;21028;-74
2023/09/11 02:09:10;;;;;;;0.32;0.32;;;17.30;99.90;;;;;;5123227;27;20028;-74
2023/09/11 02:11:36;;;;;;;0.20;0.20;;;17.20;99.90;;;;;;5124294;27;20047;-73
2023/09/11 02:14:01;;;;;;;2.00;1.08;;;17.30;99.90;;;;;;5126931;27;20166;-74
2023/09/11 02:16:27;;;;;;;1.23;1.13;;;17.20;99.90;;;;;;5126929;27;20039;-74
2023/09/11 02:18:53;;;;;;;0.77;0.60;;;17.20;99.90;;;;;;5123944;27;20043;-74
2023/09/11 02:21:18;;;;;;;2.63;1.48;;;17.20;99.90;;;;;;5119127;27;20082;-74
2023/09/11 02:23:44;;;;;;;1.38;1.02;;;17.10;99.90;;;;;;5123898;27;20036;-74
2023/09/11 02:26:09;;;;;;;0.68;0.68;;;17.10;99.90;;;;;;5126555;27;20039;-73
2023/09/11 02:28:35;;;;;;;1.45;0.73;;;17.00;99.90;;;;;;5126416;27;20045;-74
2023/09/11 02:31:01;;;;;;;1.58;1.23;;;16.90;99.90;;;;;;5124448;27;20122;-74
2023/09/11 02:33:27;;;;;;;0.90;0.57;;;16.90;99.90;;;;;;5123825;27;20044;-73
2023/09/11 02:36:02;;;;;;;1.50;0.68;;;16.80;99.90;;;;;;5123768;27;20396;-77
2023/09/11 02:38:28;;;;;;;2.20;0.85;;;16.80;99.90;;;;;;5115170;27;20035;-74
2023/09/11 02:40:54;;;;;;;0.47;0.45;;;16.80;99.90;;;;;;5126719;27;20039;-73
2023/09/11 02:43:19;;;;;;;3.10;1.45;;;16.80;99.90;;;;;;5124071;27;20114;-74
2023/09/11 02:45:45;;;;;;;12.35;1.10;;;16.90;99.90;;;;;;5123604;27;20062;-73
2023/09/11 02:48:11;;;;;;;1.15;0.73;;;16.90;99.90;;;;;;5118466;27;20398;-73
2023/09/11 02:50:40;;;;;;;0.52;0.43;;;16.90;99.90;;;;;;5126784;27;20035;-74
2023/09/11 02:53:09;;;;;;;1.10;0.60;;;16.80;99.90;;;;;;5126336;27;20588;-73
2023/09/11 02:55:38;;;;;;;2.95;1.30;;;16.80;99.90;;;;;;5123543;27;20855;-74
2023/09/11 02:58:05;;;;;;;1.05;0.95;;;16.80;99.90;;;;;;5122270;27;20123;-74
2023/09/11 03:00:36;;;;;;;0.40;0.40;;;16.80;99.90;;;;;;5124900;27;20120;-75
2023/09/11 03:03:03;;;;;;;0.55;0.40;;;16.70;99.90;;;;;;5125118;27;20046;-73
2023/09/11 03:05:32;;;;;;;3.00;1.95;;;16.80;99.90;;;;;;5125641;27;20438;-74
2023/09/11 03:07:58;;;;;;;0.63;0.63;;;16.80;99.90;;;;;;5122042;27;20035;-74
2023/09/11 03:10:24;;;;;;;1.20;0.75;;;16.70;99.90;;;;;;5122785;27;20499;-74
2023/09/11 03:12:49;;;;;;;0.65;0.65;;;16.70;99.90;;;;;;5134100;27;20118;-74
2023/09/11 03:15:15;;;;;;;1.63;1.00;;;16.60;99.90;;;;;;5126188;27;20114;-73
2023/09/11 03:17:41;;;;;;;4.07;1.38;;;16.70;99.90;;;;;;5123953;27;20119;-73
2023/09/11 03:20:08;;;;;;;0.55;0.55;;;16.60;99.90;;;;;;5122850;27;20035;-73
2023/09/11 03:22:33;;;;;;;2.42;0.52;;;16.60;99.90;;;;;;5122638;27;20141;-73
2023/09/11 03:24:59;;;;;;;1.85;0.90;;;16.60;99.90;;;;;;5125124;27;20089;-74
2023/09/11 03:27:25;;;;;;;0.85;0.75;;;16.50;99.90;;;;;;5131644;27;20075;-73
2023/09/11 03:29:51;;;;;;;0.60;0.57;;;16.40;99.90;;;;;;5125450;27;20031;-73
2023/09/11 03:32:17;;;;;;;0.85;0.85;;;16.30;99.90;;;;;;5122444;27;20047;-73
2023/09/11 03:34:42;;;;;;;0.65;0.65;;;16.40;99.90;;;;;;5122340;27;20039;-73
2023/09/11 03:37:08;;;;;;;0.95;0.88;;;16.40;99.90;;;;;;5122210;27;20046;-72
2023/09/11 03:39:34;;;;;;;2.08;0.95;;;16.50;99.90;;;;;;5125783;27;20039;-73
2023/09/11 03:41:59;;;;;;;1.13;0.93;;;16.40;99.90;;;;;;5126127;27;20038;-73
2023/09/11 03:44:25;;;;;;;1.02;0.82;;;16.40;99.90;;;;;;5122740;27;20067;-73
2023/09/11 03:46:50;;;;;;;4.95;1.90;;;16.30;99.90;;;;;;5121893;27;20035;-73
2023/09/11 03:49:16;;;;;;;1.92;1.58;;;16.40;99.90;;;;;;5124420;27;20031;-73
2023/09/11 03:51:41;;;;;;;4.18;1.10;;;16.50;99.90;;;;;;5121995;28;20055;-73
2023/09/11 03:54:08;;;;;;;0.75;0.47;;;16.40;99.90;;;;;;5122318;28;20039;-73
2023/09/11 03:56:34;;;;;;;0.30;0.22;;;16.30;99.90;;;;;;5119344;27;20048;-73
2023/09/11 03:59:00;;;;;;;7.35;2.05;;;16.50;99.90;;;;;;5125551;27;20377;-73
2023/09/11 04:01:25;;;;;;;1.33;1.10;;;16.30;99.90;;;;;;5124166;28;20488;-73
2023/09/11 04:03:51;;;;;;;1.30;0.82;;;16.30;99.90;;;;;;5122020;28;20044;-73
2023/09/11 04:06:17;;;;;;;2.10;1.52;;;16.40;99.90;;;;;;5120615;27;20039;-73
2023/09/11 04:08:42;;;;;;;2.03;1.58;;;16.40;99.90;;;;;;5121727;28;20048;-73
2023/09/11 04:11:08;;;;;;;0.77;0.77;;;16.30;99.90;;;;;;5122196;28;20035;-73
2023/09/11 04:13:34;;;;;;;1.52;0.77;;;16.20;99.90;;;;;;5122443;28;20039;-73
2023/09/11 04:15:59;;;;;;;0.25;0.22;;;16.10;99.90;;;;;;5122405;27;20320;-73
2023/09/11 04:18:25;;;;;;;1.60;0.93;;;16.10;99.90;;;;;;5107352;28;20033;-73
2023/09/11 04:20:50;;;;;;;1.60;1.30;;;16.10;99.90;;;;;;5122370;28;20065;-73
2023/09/11 04:23:16;;;;;;;0.50;0.50;;;16.10;99.90;;;;;;5125212;27;20104;-73
2023/09/11 04:25:44;;;;;;;2.40;1.75;;;16.10;99.90;;;;;;5125877;27;20043;-73
2023/09/11 04:28:10;;;;;;;0.80;0.65;;;16.10;99.90;;;;;;5100917;28;20053;-73
2023/09/11 04:30:36;;;;;;;0.98;0.75;;;16.10;99.90;;;;;;5126292;28;20066;-72
2023/09/11 04:33:02;;;;;;;1.30;1.02;;;16.10;99.90;;;;;;5124040;28;20404;-73
2023/09/11 04:35:28;;;;;;;4.85;1.70;;;16.10;99.90;;;;;;5121083;28;20477;-73
2023/09/11 04:37:54;;;;;;;0.55;0.47;;;16.10;99.90;;;;;;5120976;28;20100;-73
2023/09/11 04:40:19;;;;;;;1.52;1.00;;;16.10;99.90;;;;;;5125083;28;20392;-73
2023/09/11 04:42:45;;;;;;;1.48;1.05;;;16.00;99.90;;;;;;5125264;28;20039;-73
2023/09/11 04:45:11;;;;;;;1.23;0.60;;;15.90;99.90;;;;;;5124223;27;20123;-73
2023/09/11 04:47:36;;;;;;;1.20;0.95;;;15.90;99.90;;;;;;5118263;28;20043;-73
2023/09/11 04:50:03;;;;;;;3.50;1.55;;;15.90;99.90;;;;;;5122577;27;20047;-73
2023/09/11 04:52:29;;;;;;;1.42;1.27;;;15.90;99.90;;;;;;5125379;27;20067;-73
2023/09/11 04:54:55;;;;;;;1.05;0.95;;;15.90;99.90;;;;;;5122658;27;20047;-73
2023/09/11 04:57:20;;;;;;;2.80;0.75;;;16.00;99.90;;;;;;5127898;27;20039;-74
2023/09/11 04:59:46;;;;;;;1.02;0.90;;;15.90;99.90;;;;;;5125735;27;20075;-74
2023/09/11 05:02:11;;;;;;;0.88;0.80;;;16.00;99.90;;;;;;5125486;27;20032;-74
2023/09/11 05:04:38;;;;;;;0.63;0.55;;;15.90;99.90;;;;;;5127468;27;20027;-74
2023/09/11 05:07:04;;;;;;;2.42;1.15;;;16.00;99.90;;;;;;5128257;27;20467;-74
2023/09/11 05:09:33;;;;;;;0.60;0.60;;;16.00;99.90;;;;;;5128487;27;20044;-74
2023/09/11 05:11:59;;;;;;;11.45;2.13;;;16.00;99.90;;;;;;5128004;27;20464;-74
2023/09/11 05:14:25;;;;;;;3.20;1.67;;;16.00;99.90;;;;;;5127517;27;20031;-74
2023/09/11 05:16:50;;;;;;;9.57;2.17;;;16.10;99.90;;;;;;5126779;27;20122;-74
2023/09/11 05:19:16;;;;;;;1.17;0.90;;;16.00;99.90;;;;;;5127618;27;20126;-74
2023/09/11 05:21:42;;;;;;;0.73;0.68;;;16.00;99.90;;;;;;5126934;27;20078;-74
2023/09/11 05:24:08;;;;;;;1.20;0.90;;;16.00;99.90;;;;;;5119132;27;20031;-74
2023/09/11 05:26:33;;;;;;;1.83;1.38;;;16.10;99.90;;;;;;5127638;27;20114;-74
2023/09/11 05:28:59;;;;;;;1.83;1.25;;;16.10;99.90;;;;;;5125811;27;20042;-74
2023/09/11 05:31:25;;;;;;;4.20;2.05;;;16.20;99.90;;;;;;5124144;27;20165;-74
2023/09/11 05:33:50;;;;;;;1.95;1.15;;;16.20;99.90;;;;;;5130200;27;20047;-74
2023/09/11 05:36:16;;;;;;;2.63;2.05;;;16.20;99.90;;;;;;5123935;27;20039;-74
2023/09/11 05:38:41;;;;;;;22.35;1.38;;;16.30;99.90;;;;;;5123679;27;20473;-74
2023/09/11 05:41:07;;;;;;;2.75;1.05;;;16.40;99.90;;;;;;5125084;27;20039;-74
2023/09/11 05:43:33;;;;;;;3.53;0.90;;;16.40;99.90;;;;;;5126504;27;20035;-74
2023/09/11 05:45:59;;;;;;;1.65;0.98;;;16.60;99.90;;;;;;5127353;27;20472;-74
2023/09/11 05:48:24;;;;;;;2.75;1.73;;;16.40;99.90;;;;;;5124425;27;20039;-74
2023/09/11 05:50:50;;;;;;;2.72;1.08;;;16.50;99.90;;;;;;5123931;27;20044;-74
2023/09/11 05:53:15;;;;;;;1.00;0.70;;;16.60;99.90;;;;;;5123580;27;20403;-74
2023/09/11 05:55:41;;;;;;;6.38;2.22;;;16.70;99.90;;;;;;5117245;27;20492;-74
2023/09/11 05:58:07;;;;;;;1.95;1.73;;;16.80;99.90;;;;;;5126898;27;20058;-73
2023/09/11 06:00:33;;;;;;;1.15;0.95;;;17.00;99.90;;;;;;5124713;27;20039;-73
2023/09/11 06:02:59;;;;;;;1.77;1.13;;;17.10;99.90;;;;;;5127312;27;20442;-74
2023/09/11 06:05:25;;;;;;;1.00;0.95;;;17.20;99.90;;;;;;5126348;27;20156;-74
2023/09/11 06:07:51;;;;;;;1.10;1.02;;;17.40;99.90;;;;;;5123592;27;20035;-74
2023/09/11 06:10:17;;;;;;;3.40;2.63;;;17.50;99.90;;;;;;5123613;27;20123;-74
2023/09/11 06:12:42;;;;;;;9.10;1.02;;;17.70;99.90;;;;;;5124247;27;20126;-74
2023/09/11 06:15:08;;;;;;;2.13;1.35;;;18.00;99.90;;;;;;5125045;27;20042;-74
2023/09/11 06:17:34;;;;;;;8.80;2.92;;;18.50;99.90;;;;;;5119862;27;20036;-74
2023/09/11 06:20:00;;;;;;;2.13;1.88;;;19.10;99.90;;;;;;5123484;27;20051;-74
2023/09/11 06:22:26;;;;;;;3.65;1.58;;;19.60;99.90;;;;;;5122024;27;20039;-74
2023/09/11 06:24:51;;;;;;;1.42;1.33;;;20.10;99.90;;;;;;5120512;27;20568;-74
2023/09/11 06:27:17;;;;;;;9.70;3.60;;;20.50;99.90;;;;;;5123174;27;20040;-74
2023/09/11 06:29:43;;;;;;;1.63;1.50;;;20.90;99.90;;;;;;5123334;27;20489;-74
2023/09/11 06:32:12;;;;;;;6.57;2.97;;;21.30;99.90;;;;;;5126001;27;20054;-74
2023/09/11 06:34:37;;;;;;;3.60;1.48;;;21.70;1.00;;;;;;5105057;27;20044;-74
2023/09/11 06:37:03;;;;;;;1.60;0.93;;;22.20;99.90;;;;;;5122242;27;20046;-74
2023/09/11 06:39:29;;;;;;;5.63;1.38;;;22.80;99.90;;;;;;5126232;27;20384;-74
2023/09/11 06:41:54;;;;;;;1.98;1.50;;;23.50;97.70;;;;;;5126045;27;20054;-74
2023/09/11 06:44:20;;;;;;;4.63;1.83;;;24.20;99.90;;;;;;5122423;27;20043;-74
2023/09/11 06:46:46;;;;;;;1.45;0.82;;;24.80;91.60;;;;;;5122597;27;20047;-74
2023/09/11 06:49:11;;;;;;;5.47;2.10;;;25.20;7.80;;;;;;5123233;27;20118;-74
2023/09/11 06:51:37;;;;;;;3.03;1.20;;;25.40;91.90;;;;;;5121140;27;20108;-74
2023/09/11 06:54:03;;;;;;;0.88;0.82;;;25.20;1.00;;;;;;5125648;27;20051;-74
2023/09/11 06:56:31;;;;;;;2.42;1.38;;;24.80;1.00;;;;;;5116632;27;20051;-72
2023/09/11 06:58:57;;;;;;;1.17;0.80;;;24.30;1.00;;;;;;5114748;27;20047;-73
2023/09/11 07:01:22;;;;;;;1.25;1.13;;;24.10;99.90;;;;;;5119625;27;20149;-73
2023/09/11 07:03:48;;;;;;;2.35;1.52;;;23.70;99.90;;;;;;5117776;27;20528;-73
2023/09/11 07:06:14;;;;;;;1.58;1.15;;;23.60;99.90;;;;;;5117633;27;20047;-73
2023/09/11 07:08:39;;;;;;;2.97;1.42;;;23.50;99.90;;;;;;5120123;27;20066;-72
2023/09/11 07:11:05;;;;;;;2.20;1.52;;;23.40;1.00;;;;;;5121657;27;20404;-72
2023/09/11 07:13:34;;;;;;;2.28;1.77;;;23.20;99.90;;;;;;5120147;27;20581;-72
2023/09/11 07:16:00;;;;;;;1.95;1.15;;;23.20;1.00;;;;;;5111500;27;20035;-72
2023/09/11 07:18:26;;;;;;;3.45;1.73;;;23.20;99.90;;;;;;5121455;27;20042;-72
2023/09/11 07:20:53;;;;;;;0.47;0.47;;;23.10;99.90;;;;;;5113994;27;20083;-72
2023/09/11 07:23:25;;;;;;;1.02;0.80;;;23.10;1.00;;;;;;5121007;27;20433;-72
2023/09/11 07:25:55;;;;;;;1.85;1.45;;;23.10;94.70;;;;;;5113649;27;20097;-73
2023/09/11 07:28:24;;;;;;;3.10;2.22;;;23.20;1.00;;;;;;5120976;27;20381;-72
2023/09/11 07:30:50;;;;;;;3.92;1.48;;;23.30;99.90;;;;;;5120812;27;20075;-73
2023/09/11 07:33:15;;;;;;;2.88;1.38;;;23.30;1.00;;;;;;5118046;27;20070;-73
2023/09/11 07:35:41;;;;;;;1.10;0.98;;;23.30;1.00;;;;;;5117167;27;20389;-73
2023/09/11 07:38:07;;;;;;;3.30;2.05;;;23.40;1.00;;;;;;5118091;27;20515;-73
2023/09/11 07:40:32;;;;;;;1.25;1.15;;;23.50;99.90;;;;;;5119464;27;20096;-73
2023/09/11 07:42:58;;;;;;;1.80;1.42;;;23.50;99.90;;;;;;5112262;27;20050;-73
2023/09/11 07:45:24;;;;;;;2.63;1.33;;;23.50;99.90;;;;;;5117156;27;20119;-72
2023/09/11 07:47:50;;;;;;;2.63;2.15;;;23.60;99.90;;;;;;5110004;27;20358;-74
2023/09/11 07:50:16;;;;;;;4.00;2.10;;;23.70;99.90;;;;;;5105435;27;20040;-73
2023/09/11 07:52:42;;;;;;;2.50;1.83;;;23.70;99.90;;;;;;5120010;27;20061;-73
2023/09/11 07:55:08;;;;;;;0.93;0.80;;;23.80;99.90;;;;;;5120314;27;20050;-72
2023/09/11 07:57:33;;;;;;;8.80;1.95;;;23.90;99.90;;;;;;5121533;27;20412;-72
2023/09/11 08:00:04;;;;;;;1.55;1.27;;;24.10;99.90;;;;;;5113295;28;20492;-72
2023/09/11 08:02:30;;;;;;;1.20;1.10;;;24.20;1.00;;;;;;5115041;28;20112;-72
2023/09/11 08:04:56;;;;;;;1.92;1.27;;;24.30;1.00;;;;;;5108592;27;20150;-73
2023/09/11 08:07:22;;;;;;;1.30;1.13;;;24.50;99.90;;;;;;5100496;28;20126;-73
2023/09/11 08:09:47;;;;;;;0.82;0.80;;;24.70;99.90;;;;;;5101659;28;20040;-73
2023/09/11 08:12:13;;;;;;;0.82;0.73;;;24.80;99.90;;;;;;5105459;28;20044;-73
2023/09/11 08:14:38;;;;;;;2.28;0.77;;;25.00;99.90;;;;;;5106138;28;20050;-74
2023/09/11 08:17:04;;;;;;;13.63;1.90;;;25.70;99.90;;;;;;5109214;27;20682;-74
2023/09/11 08:19:30;;;;;;;1.45;1.25;;;26.40;99.90;;;;;;5104594;28;20534;-74
2023/09/11 08:21:55;;;;;;;1.55;1.10;;;27.20;1.00;;;;;;5106806;28;20779;-74
2023/09/11 08:24:22;;;;;;;0.93;0.47;;;27.90;1.00;;;;;;5103127;28;20042;-75
2023/09/11 08:26:48;;;;;;;7.22;2.33;;;28.50;99.90;;;;;;5108572;27;20072;-74
2023/09/11 08:29:15;;;;;;;1.65;1.10;;;29.00;99.90;;;;;;5114877;27;20063;-74
2023/09/11 08:31:41;;;;;;;2.40;1.00;;;29.40;99.90;;;;;;5110062;27;20097;-74
2023/09/11 08:34:06;;;;;;;2.20;1.40;;;29.80;99.90;;;;;;5120124;27;20043;-75
2023/09/11 08:36:32;;;;;;;2.03;1.38;;;30.00;99.90;;;;;;5115598;27;20038;-74
2023/09/11 08:38:58;;;;;;;1.85;0.75;;;30.30;99.90;;;;;;5124758;27;20031;-74
2023/09/11 08:41:25;;;;;;;3.00;1.33;;;30.80;99.90;;;;;;5111811;27;20038;-75
2023/09/11 08:43:51;;;;;;;0.63;0.63;;;31.20;99.90;;;;;;5117513;27;20531;-74
2023/09/11 08:46:18;;;;;;;1.75;1.20;;;31.50;99.90;;;;;;5123739;27;20050;-75
2023/09/11 08:48:46;;;;;;;1.52;1.17;;;31.80;99.90;;;;;;5119055;27;20035;-75
2023/09/11 08:51:35;;;;;;;1.05;0.77;;;32.00;99.90;;;;;;5110220;27;20176;-74
2023/09/11 08:54:04;;;;;;;1.45;0.98;;;32.20;99.90;;;;;;5103970;27;20058;-74
2023/09/11 08:56:30;;;;;;;1.77;1.27;;;32.00;99.90;;;;;;5123809;27;20058;-75
2023/09/11 08:58:58;;;;;;;2.45;1.33;;;32.20;99.90;;;;;;5122444;27;20042;-74
2023/09/11 09:01:24;;;;;;;4.03;1.65;;;32.40;99.90;;;;;;5119495;27;20043;-74
2023/09/11 09:03:51;;;;;;;2.25;1.20;;;32.60;99.90;;;;;;5123059;27;20054;-74
2023/09/11 09:06:18;;;;;;;0.63;0.63;;;32.40;99.90;;;;;;5125518;27;20122;-74
2023/09/11 09:08:44;;;;;;;4.18;1.45;;;32.60;99.90;;;;;;5121766;27;20381;-74
2023/09/11 09:11:11;;;;;;;0.40;0.40;;;32.60;99.90;;;;;;5120342;27;20044;-74
2023/09/11 09:13:37;;;;;;;1.65;0.82;;;32.60;99.90;;;;;;5123097;27;20125;-74
2023/09/11 09:16:03;;;;;;;2.13;1.40;;;32.70;99.90;;;;;;5113484;27;20056;-74
2023/09/11 09:18:29;;;;;;;1.40;1.05;;;32.50;95.20;;;;;;5121501;27;20063;-74
2023/09/11 09:20:55;;;;;;;4.18;0.73;;;32.70;99.90;;;;;;5130581;27;20039;-74
2023/09/11 09:23:32;;;;;;;1.20;1.08;;;32.70;96.60;;;;;;5113668;27;20051;-74
2023/09/11 09:26:09;;;;;;;0.85;0.60;;;32.80;94.10;;;;;;5108381;27;20066;-74
2023/09/11 09:28:42;;;;;;;0.95;0.70;;;32.80;91.90;;;;;;5120210;27;20048;-74
2023/09/11 09:31:08;;;;;;;1.10;0.60;;;32.80;82.00;;;;;;5122649;27;20522;-74
2023/09/11 09:33:35;;;;;;;0.50;0.40;;;32.70;78.70;;;;;;5112166;27;20085;-74
2023/09/11 09:36:00;;;;;;;0.98;0.75;;;32.70;64.30;;;;;;5118557;27;20040;-74
2023/09/11 09:38:26;;;;;;;1.13;1.02;;;32.40;32.90;;;;;;5119244;27;20331;-74
2023/09/11 09:40:54;;;;;;;0.88;0.77;;;32.20;19.50;;;;;;5106383;27;20044;-74
2023/09/11 09:43:21;;;;;;;1.08;0.60;;;32.20;14.60;;;;;;5108046;27;20045;-76
2023/09/11 09:45:47;;;;;;;0.75;0.75;;;32.00;13.10;;;;;;5104307;27;20114;-75
2023/09/11 09:48:18;;;;;;;4.30;1.30;;;31.90;13.80;;;;;;5106359;27;20593;-75
2023/09/11 09:50:49;;;;;;;1.52;1.05;;;31.80;2.70;;;;;;5108391;27;20039;-75
2023/09/11 09:53:21;;;;;;;1.80;1.27;;;31.60;1.00;;;;;;5104188;27;20047;-76
2023/09/11 09:55:46;;;;;;;1.38;1.00;;;31.40;1.00;;;;;;5116327;27;20036;-76
2023/09/11 09:58:12;;;;;;;2.17;0.93;;;31.30;1.00;;;;;;5120259;27;20501;-76
2023/09/11 10:00:38;;;;;;;1.05;0.82;;;31.20;1.00;;;;;;5123465;27;20043;-76
2023/09/11 10:03:04;;;;;;;3.33;1.00;;;31.10;1.00;;;;;;5122827;27;20042;-75
2023/09/11 10:05:29;;;;;;;1.88;1.17;;;31.00;1.00;;;;;;5115934;27;20043;-75
2023/09/11 10:07:59;;;;;;;1.55;0.65;;;31.00;1.00;;;;;;5119822;27;20473;-76
2023/09/11 10:10:29;;;;;;;1.30;0.80;;;30.80;1.00;;;;;;5120358;27;20409;-76
2023/09/11 10:13:02;;;;;;;1.55;1.17;;;31.00;1.00;;;;;;5108125;27;20043;-75
2023/09/11 10:15:29;;;;;;;1.08;0.75;;;31.00;1.00;;;;;;5121311;27;20054;-76
2023/09/11 10:17:55;;;;;;;1.23;1.02;;;31.10;1.00;;;;;;5110694;27;20054;-75
2023/09/11 10:20:22;;;;;;;1.13;0.75;;;31.20;1.00;;;;;;5117423;27;20035;-74
2023/09/11 10:22:48;;;;;;;1.60;1.33;;;31.20;1.00;;;;;;5110260;27;20504;-74
2023/09/11 10:25:17;;;;;;;0.35;0.32;;;31.30;1.00;;;;;;5109634;27;20083;-74
2023/09/11 10:27:44;;;;;;;4.55;1.02;;;31.40;1.00;;;;;;5118884;27;20425;-74
2023/09/11 10:30:12;;;;;;;1.45;0.95;;;31.50;1.00;;;;;;5121393;27;20040;-74
2023/09/11 10:33:03;;;;;;;1.65;1.20;;;31.30;1.00;;;;;;5121384;27;20054;-74
2023/09/11 10:35:33;;;;;;;14.48;0.70;;;31.40;1.00;;;;;;5109469;27;20780;-74
2023/09/11 10:38:00;;;;;;;0.65;0.50;;;31.50;1.00;;;;;;5121558;27;20118;-74
2023/09/11 10:40:32;;;;;;;1.27;0.80;;;31.60;1.00;;;;;;5124167;27;20047;-73
2023/09/11 10:42:58;;;;;;;3.90;1.67;;;31.60;1.00;;;;;;5122927;27;20091;-74
2023/09/11 10:45:26;;;;;;;4.38;1.52;;;31.60;1.00;;;;;;5107490;27;20039;-74
2023/09/11 10:47:51;;;;;;;4.57;1.63;;;31.70;1.00;;;;;;5102181;28;20070;-74
2023/09/11 10:50:17;;;;;;;1.27;0.60;;;31.90;1.00;;;;;;5104840;27;20075;-73
2023/09/11 10:52:46;;;;;;;1.80;1.20;;;32.00;1.00;;;;;;5106579;27;20051;-74
2023/09/11 10:55:13;;;;;;;0.90;0.70;;;31.80;1.00;;;;;;5107064;27;20545;-74
2023/09/11 10:57:39;;;;;;;1.05;0.95;;;32.00;1.00;;;;;;5105980;27;20035;-74
2023/09/11 11:00:05;;;;;;;1.45;0.90;;;32.10;1.60;;;;;;5104846;27;20035;-74
2023/09/11 11:02:31;;;;;;;0.55;0.47;;;32.20;1.00;;;;;;5102408;27;20040;-74
2023/09/11 11:04:57;;;;;;;2.33;1.20;;;32.20;1.00;;;;;;5105767;27;20046;-74
2023/09/11 11:07:23;;;;;;;4.68;1.13;;;32.20;1.30;;;;;;5108737;27;20040;-73
2023/09/11 11:09:51;;;;;;;0.70;0.57;;;32.40;1.00;;;;;;5112454;27;20035;-74
2023/09/11 11:12:31;;;;;;;0.90;0.63;;;32.60;4.50;;;;;;5123171;27;20051;-73
2023/09/11 11:15:20;;;;;;;3.58;1.35;;;32.50;1.00;;;;;;5104840;27;20035;-74
2023/09/11 11:17:46;;;;;;;0.98;0.68;;;32.50;1.00;;;;;;5122140;27;20125;-74
2023/09/11 11:20:17;;;;;;;9.23;1.52;;;32.70;1.00;;;;;;5120082;27;20070;-74
2023/09/11 11:22:43;;;;;;;2.28;1.45;;;32.60;1.00;;;;;;5121042;27;20050;-74
2023/09/11 11:25:12;;;;;;;1.20;0.93;;;32.60;1.00;;;;;;5123391;27;20499;-72
2023/09/11 11:27:41;;;;;;;2.75;1.73;;;32.80;2.50;;;;;;5123848;27;20268;-74
2023/09/11 11:30:07;;;;;;;1.17;0.82;;;32.90;7.10;;;;;;5120996;27;20100;-73
2023/09/11 11:32:34;;;;;;;0.52;0.52;;;32.90;3.20;;;;;;5120592;27;20035;-74
2023/09/11 11:35:02;;;;;;;1.92;1.30;;;33.20;7.30;;;;;;5119764;27;20043;-74
2023/09/11 11:37:36;;;;;;;6.10;2.03;;;33.40;16.30;;;;;;5122413;27;20031;-73
2023/09/11 11:40:08;;;;;;;0.75;0.70;;;33.50;10.90;;;;;;5122731;27;20046;-73
2023/09/11 11:42:38;;;;;;;14.68;1.67;;;33.50;1.00;;;;;;5120267;27;20028;-73
2023/09/11 11:45:05;;;;;;;1.58;1.17;;;33.60;5.70;;;;;;5119277;27;20069;-73
2023/09/11 11:47:33;;;;;;;1.65;1.00;;;33.60;1.00;;;;;;5119138;27;20122;-73
2023/09/11 11:50:11;;;;;;;3.08;1.50;;;33.80;1.00;;;;;;5122430;27;20036;-73
2023/09/11 11:52:37;;;;;;;9.32;1.48;;;33.80;1.00;;;;;;5114113;27;20086;-74
2023/09/11 11:55:20;;;;;;;1.35;1.10;;;34.00;1.00;;;;;;5115662;27;20075;-73
2023/09/11 11:57:53;;;;;;;2.88;1.70;;;34.00;1.00;;;;;;5114574;28;20495;-73
2023/09/11 12:00:19;;;;;;;0.60;0.45;;;34.10;1.00;;;;;;5127076;27;20040;-73
2023/09/11 12:02:45;;;;;;;2.20;1.23;;;34.30;1.00;;;;;;5132054;27;20041;-73
2023/09/11 12:05:15;;;;;;;1.42;0.55;;;34.40;1.00;;;;;;5129390;27;20048;-73
2023/09/11 12:07:41;;;;;;;0.45;0.45;;;34.60;1.00;;;;;;5131062;27;20046;-73
2023/09/11 12:10:11;;;;;;;2.50;1.33;;;34.50;1.00;;;;;;5131921;27;20051;-75
2023/09/11 12:12:39;;;;;;;0.73;0.63;;;34.40;1.00;;;;;;5129599;27;20043;-74
2023/09/11 12:15:05;;;;;;;2.72;0.90;;;34.40;1.00;;;;;;5128369;27;20499;-74
2023/09/11 12:17:31;;;;;;;0.50;0.50;;;34.60;1.00;;;;;;5128891;27;20039;-73
2023/09/11 12:20:11;;;;;;;0.70;0.50;;;34.80;1.00;;;;;;5131848;27;20107;-73
2023/09/11 12:22:37;;;;;;;1.50;0.85;;;34.80;1.00;;;;;;5129917;27;20050;-74
2023/09/11 12:25:03;;;;;;;0.68;0.52;;;34.90;1.00;;;;;;5119901;27;20052;-73
2023/09/11 12:27:28;;;;;;;1.40;0.95;;;34.90;1.00;;;;;;5128536;27;20039;-73
2023/09/11 12:29:57;;;;;;;0.63;0.52;;;34.70;1.00;;;;;;5129784;27;20370;-73
2023/09/11 12:32:23;;;;;;;1.83;0.93;;;34.70;1.00;;;;;;5129309;27;20408;-73
2023/09/11 12:34:49;;;;;;;0.52;0.43;;;34.80;1.00;;;;;;5132002;27;20035;-73
2023/09/11 12:37:15;;;;;;;2.40;1.42;;;34.80;1.00;;;;;;5120009;27;20040;-74
2023/09/11 12:39:41;;;;;;;0.75;0.55;;;35.00;99.90;;;;;;5128944;27;20084;-73
2023/09/11 12:42:07;;;;;;;0.47;0.47;;;35.00;99.90;;;;;;5129147;27;20079;-73
2023/09/11 12:44:33;;;;;;;1.05;0.77;;;34.90;99.90;;;;;;5129793;27;20039;-74
2023/09/11 12:47:00;;;;;;;1.55;0.50;;;34.90;99.90;;;;;;5128890;27;20039;-74
2023/09/11 12:49:26;;;;;;;0.60;0.47;;;35.00;99.90;;;;;;5131613;27;20039;-73